Time;durP1;ratioP1;P1;durP2;ratioP2;P2;SDS_P1;SDS_P2;PMS_P1;PMS_P2;Temp;Humidity;BMP_temperature;BMP_pressure;BME280_temperature;BME280_humidity;BME280_pressure;Samples;Min_cycle;Max_cycle;Signal;HPM_P1;HPM_P2
2023/08/13 00:01:26;;;;;;;1999.90;999.90;;;;;;;22.72;100.00;95619.28;5007308;28;20272;-58
2023/08/13 00:03:52;;;;;;;1999.90;999.90;;;;;;;22.72;100.00;95619.28;5006928;28;20192;-60
2023/08/13 00:06:17;;;;;;;1999.90;999.90;;;;;;;22.72;100.00;95619.28;5006997;28;20195;-59
2023/08/13 00:08:43;;;;;;;1999.90;999.90;;;;;;;22.72;100.00;95619.28;5007263;28;20202;-59
2023/08/13 00:11:11;;;;;;;1999.90;999.90;;;;;;;22.72;100.00;95619.28;5006529;28;20200;-58
2023/08/13 00:13:37;;;;;;;1999.90;999.90;;;;;;;22.72;100.00;95619.28;5006684;28;20207;-58
2023/08/13 00:16:03;;;;;;;1999.90;999.90;;;;;;;22.72;100.00;95619.28;5006769;28;20200;-59
2023/08/13 00:18:29;;;;;;;1999.90;999.90;;;;;;;22.72;100.00;95619.28;5006551;28;20299;-59
2023/08/13 00:20:54;;;;;;;1999.90;999.90;;;;;;;22.72;100.00;95619.28;5006744;28;20271;-59
2023/08/13 00:23:20;;;;;;;1999.90;999.90;;;;;;;22.72;100.00;95619.28;5006783;28;20195;-58
2023/08/13 00:25:45;;;;;;;1999.90;999.90;;;;;;;22.72;100.00;95619.28;5006694;28;20224;-59
2023/08/13 00:28:10;;;;;;;1999.90;999.90;;;;;;;22.72;100.00;95619.28;5006477;28;20219;-59
2023/08/13 00:30:36;;;;;;;1999.90;999.90;;;;;;;22.72;100.00;95619.28;5006750;28;20179;-59
2023/08/13 00:33:01;;;;;;;1999.90;999.90;;;;;;;22.72;100.00;95619.28;5006680;28;20188;-59
2023/08/13 00:35:26;;;;;;;1999.90;999.90;;;;;;;22.72;100.00;95619.28;5006973;28;20211;-59
2023/08/13 00:37:52;;;;;;;1999.90;999.90;;;;;;;22.72;100.00;95619.28;5006707;28;20210;-58
2023/08/13 00:40:17;;;;;;;1999.90;999.90;;;;;;;22.72;100.00;95619.28;5006674;28;20203;-59
2023/08/13 00:42:43;;;;;;;1999.90;999.90;;;;;;;22.72;100.00;95619.28;5006409;28;20206;-59
2023/08/13 00:45:09;;;;;;;1999.90;999.90;;;;;;;22.72;100.00;95619.28;5006660;28;20196;-59
2023/08/13 00:47:36;;;;;;;1999.90;999.90;;;;;;;22.72;100.00;95619.28;5006337;28;20200;-59
2023/08/13 00:50:04;;;;;;;1999.90;999.90;;;;;;;22.72;100.00;95619.28;5005994;28;20223;-59
2023/08/13 00:52:29;;;;;;;1999.90;999.90;;;;;;;22.72;100.00;95619.28;5006531;28;20220;-59
2023/08/13 00:54:55;;;;;;;1999.90;999.90;;;;;;;22.72;100.00;95619.28;5005528;28;20207;-59
2023/08/13 00:57:20;;;;;;;1999.90;999.90;;;;;;;22.72;100.00;95619.28;5005694;28;20299;-59
2023/08/13 00:59:47;;;;;;;1999.90;999.90;;;;;;;22.72;100.00;95619.28;5005931;28;20183;-59
2023/08/13 01:02:12;;;;;;;1999.90;999.90;;;;;;;22.72;100.00;95619.28;5006322;28;20199;-59
2023/08/13 01:04:38;;;;;;;1999.90;999.90;;;;;;;22.72;100.00;95619.28;5005981;28;20238;-59
2023/08/13 01:07:39;;;;;;;1999.90;999.90;;;;;;;22.72;100.00;95619.28;5005855;28;20210;-59
2023/08/13 01:10:23;;;;;;;1999.90;999.90;;;;;;;22.72;100.00;95619.28;5001385;28;20204;-59
2023/08/13 01:12:57;;;;;;;1999.90;999.90;;;;;;;22.72;100.00;95619.28;5005804;28;20195;-59
2023/08/13 01:15:36;;;;;;;1999.90;999.90;;;;;;;22.72;100.00;95619.28;5005781;28;20218;-59
2023/08/13 01:18:02;;;;;;;1999.90;999.90;;;;;;;22.72;100.00;95619.28;5006049;28;20196;-58
2023/08/13 01:20:32;;;;;;;1999.90;999.90;;;;;;;22.72;100.00;95619.28;5005918;28;20199;-58
2023/08/13 01:22:58;;;;;;;1999.90;999.90;;;;;;;22.72;100.00;95619.28;5005559;28;20500;-59
2023/08/13 01:25:28;;;;;;;1999.90;999.90;;;;;;;22.72;100.00;95619.28;5005719;28;20231;-59
2023/08/13 01:28:12;;;;;;;1999.90;999.90;;;;;;;22.72;100.00;95619.28;5005369;28;20408;-59
2023/08/13 01:30:57;;;;;;;1999.90;999.90;;;;;;;22.72;100.00;95619.28;5005949;28;20230;-59
2023/08/13 01:33:28;;;;;;;1999.90;999.90;;;;;;;22.72;100.00;95619.28;5005153;28;20275;-59
2023/08/13 01:35:57;;;;;;;1999.90;999.90;;;;;;;21.82;100.00;95487.13;5005825;28;20247;-58
2023/08/13 01:38:23;;;;;;;1999.90;999.90;;;;;;;21.80;100.00;95484.81;5005665;28;20281;-59
2023/08/13 01:40:49;;;;;;;1999.90;999.90;;;;;;;21.81;100.00;95480.78;5005267;28;20243;-59
2023/08/13 01:43:15;;;;;;;1999.90;999.90;;;;;;;21.80;100.00;95473.69;5005300;28;20207;-59
2023/08/13 01:45:40;;;;;;;1999.90;999.90;;;;;;;21.79;100.00;95463.03;5005094;28;20192;-59
2023/08/13 01:48:06;;;;;;;1999.90;999.90;;;;;;;21.74;100.00;95453.31;5005204;28;20206;-60
2023/08/13 01:50:32;;;;;;;1999.90;999.90;;;;;;;21.65;100.00;95439.47;5004962;28;20234;-59
2023/08/13 01:52:57;;;;;;;1999.90;999.90;;;;;;;21.65;100.00;95427.56;5004859;28;20219;-59
2023/08/13 01:55:22;;;;;;;1999.90;999.90;;;;;;;21.63;100.00;95414.13;5005064;28;20217;-59
2023/08/13 01:57:48;;;;;;;1999.90;999.90;;;;;;;21.61;100.00;95405.53;5004869;28;20192;-59
2023/08/13 02:00:13;;;;;;;1999.90;999.90;;;;;;;21.41;100.00;95391.44;5005338;28;20259;-59
2023/08/13 02:02:39;;;;;;;1999.90;999.90;;;;;;;21.37;100.00;95374.16;5004938;28;20191;-59
2023/08/13 02:05:05;;;;;;;1999.90;999.90;;;;;;;21.32;100.00;95335.16;5004751;28;20183;-59
2023/08/13 02:07:31;;;;;;;1999.90;999.90;;;;;;;21.23;100.00;95302.63;5004618;28;20294;-59
2023/08/13 02:09:56;;;;;;;1999.90;999.90;;;;;;;21.15;100.00;95268.13;5004764;28;20195;-59
2023/08/13 02:12:21;;;;;;;1999.90;999.90;;;;;;;21.10;100.00;95216.03;5004697;28;20204;-59
2023/08/13 02:14:47;;;;;;;1999.90;999.90;;;;;;;21.09;100.00;95170.03;5004892;28;20275;-58
2023/08/13 02:17:14;;;;;;;1999.90;999.90;;;;;;;21.07;100.00;95144.75;5004496;28;20199;-59
2023/08/13 02:19:40;;;;;;;1999.90;999.90;;;;;;;21.02;100.00;95131.50;5004616;28;20199;-59
2023/08/13 02:22:06;;;;;;;1999.90;999.90;;;;;;;20.99;100.00;95126.94;5004423;28;20196;-60
2023/08/13 02:24:32;;;;;;;1999.90;999.90;;;;;;;20.98;100.00;95097.63;5004654;28;20191;-59
2023/08/13 02:26:57;;;;;;;1999.90;999.90;;;;;;;21.00;100.00;95089.59;5004411;28;20195;-59
2023/08/13 02:29:22;;;;;;;1999.90;999.90;;;;;;;21.02;100.00;95073.19;5004664;28;20234;-59
2023/08/13 02:31:48;;;;;;;1999.90;999.90;;;;;;;21.02;100.00;95070.41;5004605;28;20199;-59
2023/08/13 02:34:13;;;;;;;1999.90;999.90;;;;;;;21.06;100.00;95071.03;5004280;28;20207;-60
2023/08/13 02:36:38;;;;;;;1999.90;999.90;;;;;;;21.07;100.00;95072.53;5004918;28;20179;-59
2023/08/13 02:39:04;;;;;;;1999.90;999.90;;;;;;;21.08;100.00;95074.06;5004823;28;20215;-61
2023/08/13 02:41:29;;;;;;;1999.90;999.90;;;;;;;21.03;100.00;95077.53;5004719;28;20218;-59
2023/08/13 02:43:56;;;;;;;1999.90;999.90;;;;;;;21.00;100.00;95084.03;5004521;28;20211;-59
2023/08/13 02:46:23;;;;;;;1999.90;999.90;;;;;;;20.98;100.00;95080.94;5004391;28;20504;-59
2023/08/13 02:48:48;;;;;;;1999.90;999.90;;;;;;;20.97;100.00;95073.88;5004092;28;20444;-59
2023/08/13 02:51:14;;;;;;;1999.90;999.90;;;;;;;20.98;100.00;95058.72;5004409;28;20202;-59
2023/08/13 02:53:43;;;;;;;1999.90;999.90;;;;;;;20.95;100.00;95050.59;5004870;28;20287;-59
2023/08/13 02:56:10;;;;;;;1999.90;999.90;;;;;;;20.95;100.00;95043.06;5004062;28;20192;-59
2023/08/13 02:58:35;;;;;;;1999.90;999.90;;;;;;;20.97;100.00;95026.66;5004154;28;20195;-59
2023/08/13 03:01:01;;;;;;;1999.90;999.90;;;;;;;20.88;100.00;94987.88;5004134;28;20219;-58
2023/08/13 03:03:26;;;;;;;1999.90;999.90;;;;;;;20.85;100.00;94886.09;5004029;28;20199;-59
2023/08/13 03:05:52;;;;;;;1999.90;999.90;;;;;;;20.74;100.00;94761.03;5004169;28;20207;-59
2023/08/13 03:08:17;;;;;;;1999.90;999.90;;;;;;;20.61;100.00;94657.91;5004001;28;20222;-59
2023/08/13 03:10:42;;;;;;;1999.90;999.90;;;;;;;20.42;100.00;94523.50;5004542;28;20238;-59
2023/08/13 03:13:08;;;;;;;1999.90;999.90;;;;;;;20.37;100.00;94406.94;5003994;28;20326;-59
2023/08/13 03:15:33;;;;;;;1999.90;999.90;;;;;;;20.36;100.00;94359.00;5003889;28;20211;-59
2023/08/13 03:17:58;;;;;;;1999.90;999.90;;;;;;;20.45;100.00;94314.47;5006456;28;20203;-58
2023/08/13 03:20:24;;;;;;;1999.90;999.90;;;;;;;20.46;100.00;94285.44;5007728;28;20242;-58
2023/08/13 03:22:49;;;;;;;1999.90;999.90;;;;;;;20.36;100.00;94278.56;5007879;28;20230;-59
2023/08/13 03:25:15;;;;;;;1999.90;999.90;;;;;;;20.37;100.00;94260.69;5007300;28;20235;-59
2023/08/13 03:27:40;;;;;;;1999.90;999.90;;;;;;;20.38;100.00;94242.78;5007876;28;20519;-59
2023/08/13 03:30:06;;;;;;;1999.90;999.90;;;;;;;20.42;100.00;94231.44;5008123;28;20207;-59
2023/08/13 03:32:32;;;;;;;1999.90;999.90;;;;;;;20.42;100.00;94218.34;5008036;28;20200;-59
2023/08/13 03:34:57;;;;;;;1999.90;999.90;;;;;;;20.40;100.00;94204.19;5007684;28;20207;-59
2023/08/13 03:37:22;;;;;;;1999.90;999.90;;;;;;;20.42;100.00;94192.63;5008009;28;20168;-59
2023/08/13 03:39:48;;;;;;;1999.90;999.90;;;;;;;20.40;100.00;94182.00;5008083;28;20195;-59
2023/08/13 03:42:13;;;;;;;1999.90;999.90;;;;;;;20.34;100.00;94180.47;5007913;28;20272;-59
2023/08/13 03:44:40;;;;;;;1999.90;999.90;;;;;;;20.26;100.00;94174.66;5007380;28;20211;-59
2023/08/13 03:47:06;;;;;;;1999.90;999.90;;;;;;;20.27;100.00;94167.84;5007581;28;20219;-60
2023/08/13 03:49:31;;;;;;;1999.90;999.90;;;;;;;20.19;100.00;94166.78;5007366;28;20207;-59
2023/08/13 03:51:57;;;;;;;1999.90;999.90;;;;;;;20.13;100.00;94177.06;5007459;28;20196;-59
2023/08/13 03:54:22;;;;;;;1999.90;999.90;;;;;;;20.11;100.00;94176.06;5007307;28;20219;-59
2023/08/13 03:56:47;;;;;;;1999.90;999.90;;;;;;;20.08;100.00;94172.22;5007106;28;20192;-59
2023/08/13 03:59:12;;;;;;;1999.90;999.90;;;;;;;20.06;100.00;94183.03;5007125;28;20196;-59
2023/08/13 04:01:38;;;;;;;1999.90;999.90;;;;;;;20.06;100.00;94169.19;5007207;28;20192;-59
2023/08/13 04:04:03;;;;;;;1999.90;999.90;;;;;;;20.06;100.00;94169.19;5007479;28;20195;-59
2023/08/13 04:06:29;;;;;;;1999.90;999.90;;;;;;;20.00;100.00;94171.19;5007047;28;20199;-59
2023/08/13 04:08:54;;;;;;;1999.90;999.90;;;;;;;20.00;100.00;94170.41;5006952;28;20211;-59
2023/08/13 04:11:19;;;;;;;1999.90;999.90;;;;;;;19.92;100.00;94174.88;5007163;28;20235;-59
2023/08/13 04:13:45;;;;;;;1999.90;999.90;;;;;;;19.88;100.00;94179.91;5007039;28;20211;-59
2023/08/13 04:16:10;;;;;;;1999.90;999.90;;;;;;;19.92;100.00;94186.72;5007053;28;20200;-59
2023/08/13 04:18:35;;;;;;;1999.90;999.90;;;;;;;19.95;100.00;94182.97;5006650;28;20203;-59
2023/08/13 04:21:01;;;;;;;1999.90;999.90;;;;;;;19.93;100.00;94179.94;5006740;28;20231;-59
2023/08/13 04:23:26;;;;;;;1999.90;999.90;;;;;;;19.93;100.00;94185.47;5006633;28;20203;-58
2023/08/13 04:25:51;;;;;;;1999.90;999.90;;;;;;;19.93;100.00;94181.94;5006749;28;20250;-59
2023/08/13 04:28:17;;;;;;;1999.90;999.90;;;;;;;19.85;100.00;94186.41;5005428;28;20219;-59
2023/08/13 04:30:42;;;;;;;1999.90;999.90;;;;;;;19.86;100.00;94188.69;5006545;28;20188;-59
2023/08/13 04:33:07;;;;;;;1999.90;999.90;;;;;;;19.86;100.00;94188.69;5007172;28;20192;-59
2023/08/13 04:35:33;;;;;;;1999.90;999.90;;;;;;;19.96;100.00;94187.25;5006913;28;20326;-59
2023/08/13 04:37:58;;;;;;;1999.90;999.90;;;;;;;20.10;100.00;94183.59;5006607;28;20191;-59
2023/08/13 04:40:23;;;;;;;1999.90;999.90;;;;;;;20.29;100.00;94184.72;5006781;28;20195;-59
2023/08/13 04:42:49;;;;;;;1999.90;999.90;;;;;;;20.44;100.00;94181.78;5005972;28;20203;-59
2023/08/13 04:45:15;;;;;;;1999.90;999.90;;;;;;;20.61;100.00;94191.72;5006391;28;20222;-59
2023/08/13 04:47:41;;;;;;;1999.90;999.90;;;;;;;20.76;100.00;94189.50;5006882;28;20203;-59
2023/08/13 04:50:08;;;;;;;1999.90;999.90;;;;;;;20.81;100.00;94210.22;5006568;28;20195;-58
2023/08/13 04:52:33;;;;;;;1999.90;999.90;;;;;;;20.91;100.00;94242.81;5006093;28;20496;-58
2023/08/13 04:54:59;;;;;;;1999.90;999.90;;;;;;;21.03;100.00;94294.41;5006128;28;20204;-57
2023/08/13 04:57:24;;;;;;;1999.90;999.90;;;;;;;21.12;100.00;94374.72;5006014;28;20203;-56
2023/08/13 04:59:49;;;;;;;1999.90;999.90;;;;;;;21.39;100.00;94460.28;5006185;28;20215;-55
2023/08/13 05:02:15;;;;;;;1999.90;999.90;;;;;;;21.78;100.00;94597.47;5005817;28;20215;-57
2023/08/13 05:04:40;;;;;;;1999.90;999.90;;;;;;;22.02;100.00;94795.41;5005766;28;20188;-57
2023/08/13 05:07:06;;;;;;;1999.90;999.90;;;;;;;22.27;100.00;94966.34;5005877;28;20195;-58
2023/08/13 05:09:31;;;;;;;1999.90;999.90;;;;;;;22.75;100.00;95095.50;5005599;28;20187;-59
2023/08/13 05:11:57;;;;;;;1999.90;999.90;;;;;;;23.32;100.00;95215.47;5006253;28;20172;-58
2023/08/13 05:14:22;;;;;;;1999.90;999.90;;;;;;;23.48;100.00;95345.91;5005934;28;20279;-57
2023/08/13 05:16:48;;;;;;;1999.90;999.90;;;;;;;23.69;100.00;95406.03;5006213;28;20201;-57
2023/08/13 05:19:13;;;;;;;1999.90;999.90;;;;;;;23.58;100.00;95451.28;5005778;28;20202;-58
2023/08/13 05:21:38;;;;;;;1999.90;999.90;;;;;;;23.72;100.00;95458.06;5005556;28;20191;-57
2023/08/13 05:24:04;;;;;;;1999.90;999.90;;;;;;;24.10;100.00;95480.13;5005425;28;20215;-57
2023/08/13 05:26:30;;;;;;;1999.90;999.90;;;;;;;24.58;100.00;95512.69;5005256;28;20192;-58
2023/08/13 05:28:55;;;;;;;1999.90;999.90;;;;;;;24.44;100.00;95537.91;5005423;28;20198;-58
2023/08/13 05:31:20;;;;;;;1999.90;999.90;;;;;;;24.46;100.00;95540.97;5005399;28;20188;-58
2023/08/13 05:33:46;;;;;;;1999.90;999.90;;;;;;;24.87;100.00;95548.06;5005450;28;20207;-59
2023/08/13 05:36:11;;;;;;;1999.90;999.90;;;;;;;25.32;100.00;95552.84;5005486;28;20187;-59
2023/08/13 05:38:36;;;;;;;1999.90;999.90;;;;;;;26.01;100.00;95569.19;5005978;28;20196;-59
2023/08/13 05:41:02;;;;;;;1999.90;999.90;;;;;;;26.35;100.00;95579.31;5004634;28;20198;-59
2023/08/13 05:43:27;;;;;;;1999.90;999.90;;;;;;;26.61;100.00;95591.16;5005336;28;20195;-59
2023/08/13 05:45:53;;;;;;;1999.90;999.90;;;;;;;27.17;100.00;95600.53;5005376;28;20198;-59
2023/08/13 05:48:18;;;;;;;1999.90;999.90;;;;;;;27.38;100.00;95608.25;5004908;28;20226;-59
2023/08/13 05:50:43;;;;;;;1999.90;999.90;;;;;;;27.41;100.00;95624.06;5005056;28;20199;-58
2023/08/13 05:53:09;;;;;;;1999.90;999.90;;;;;;;27.89;100.00;95624.63;5004810;28;20191;-59
2023/08/13 05:55:34;;;;;;;1999.90;999.90;;;;;;;28.40;100.00;95634.53;5004849;28;20226;-58
2023/08/13 05:57:59;;;;;;;1999.90;999.90;;;;;;;28.30;100.00;95631.22;5004821;28;20230;-59
2023/08/13 06:00:25;;;;;;;1999.90;999.90;;;;;;;29.06;100.00;95628.00;5005025;28;20207;-59
2023/08/13 06:02:50;;;;;;;1999.90;999.90;;;;;;;29.48;100.00;95635.94;5004961;28;20196;-59
2023/08/13 06:05:16;;;;;;;1999.90;999.90;;;;;;;29.61;100.00;95641.78;5004948;28;20223;-59
2023/08/13 06:07:41;;;;;;;1999.90;999.90;;;;;;;29.63;100.00;95642.00;5004955;28;20195;-59
2023/08/13 06:10:07;;;;;;;1999.90;999.90;;;;;;;29.62;100.00;95634.84;5004704;28;20263;-57
2023/08/13 06:12:33;;;;;;;1999.90;999.90;;;;;;;29.04;100.00;95624.91;5004487;28;20222;-58
2023/08/13 06:14:59;;;;;;;1999.90;999.90;;;;;;;28.50;100.00;95632.22;5005044;28;20215;-59
2023/08/13 06:17:25;;;;;;;1999.90;999.90;;;;;;;28.70;100.00;95635.53;5004292;28;20202;-58
2023/08/13 06:19:51;;;;;;;1999.90;999.90;;;;;;;28.89;100.00;95630.06;5004551;28;20230;-59
2023/08/13 06:22:16;;;;;;;1999.90;999.90;;;;;;;29.62;100.00;95623.59;5004695;28;20200;-58
2023/08/13 06:24:41;;;;;;;1999.90;999.90;;;;;;;29.69;100.00;95628.66;5004790;28;20250;-58
2023/08/13 06:27:07;;;;;;;1999.90;999.90;;;;;;;29.93;100.00;95626.66;5004344;28;20206;-58
2023/08/13 06:29:32;;;;;;;1999.90;999.90;;;;;;;30.28;100.00;95623.06;5004423;28;20247;-58
2023/08/13 06:31:58;;;;;;;1999.90;999.90;;;;;;;30.37;100.00;95625.53;5004324;28;20199;-59
2023/08/13 06:34:23;;;;;;;1999.90;999.90;;;;;;;30.48;100.00;95619.78;5004232;28;20243;-59
2023/08/13 06:36:48;;;;;;;1999.90;999.90;;;;;;;30.68;100.00;95616.47;5004289;28;20195;-59
2023/08/13 06:39:14;;;;;;;1999.90;999.90;;;;;;;30.70;100.00;95611.06;5004762;28;20207;-59
2023/08/13 06:41:39;;;;;;;1999.90;999.90;;;;;;;30.69;100.00;95618.00;5004275;28;20234;-58
2023/08/13 06:44:05;;;;;;;1999.90;999.90;;;;;;;31.26;100.00;95614.00;5003960;28;20204;-58
2023/08/13 06:46:31;;;;;;;1999.90;999.90;;;;;;;31.80;100.00;95618.13;5004509;28;20167;-58
2023/08/13 06:48:56;;;;;;;1999.90;999.90;;;;;;;32.19;100.00;95618.22;5004064;28;20199;-57
2023/08/13 06:51:21;;;;;;;1999.90;999.90;;;;;;;31.94;100.00;95607.63;5003986;28;20243;-58
2023/08/13 06:53:47;;;;;;;1999.90;999.90;;;;;;;31.95;100.00;95606.31;5008330;28;20208;-59
2023/08/13 06:56:12;;;;;;;1999.90;999.90;;;;;;;31.56;100.00;95598.41;5008581;28;20195;-59
2023/08/13 06:58:37;;;;;;;1999.90;999.90;;;;;;;31.94;100.00;95588.56;5008357;28;20223;-58
2023/08/13 07:01:03;;;;;;;1999.90;999.90;;;;;;;32.66;100.00;95596.53;5008563;28;20195;-58
2023/08/13 07:03:28;;;;;;;1999.90;999.90;;;;;;;31.56;100.00;95598.41;5008026;28;20187;-58
2023/08/13 07:05:53;;;;;;;1999.90;999.90;;;;;;;32.81;100.00;95599.59;5007894;28;20195;-58
2023/08/13 07:08:19;;;;;;;1999.90;999.90;;;;;;;33.61;100.00;95608.22;5008228;28;20379;-59
2023/08/13 07:10:44;;;;;;;1999.90;999.90;;;;;;;34.40;100.00;95605.78;5008378;28;20192;-59
2023/08/13 07:13:10;;;;;;;1999.90;999.90;;;;;;;34.57;100.00;95608.19;5008171;28;20192;-59
2023/08/13 07:15:35;;;;;;;1999.90;999.90;;;;;;;34.42;100.00;95608.06;5007617;28;20208;-59
2023/08/13 07:18:00;;;;;;;1999.90;999.90;;;;;;;33.60;100.00;95592.53;5008360;28;20255;-59
2023/08/13 07:20:26;;;;;;;1999.90;999.90;;;;;;;33.55;100.00;95596.25;5007640;28;20200;-58
2023/08/13 07:22:52;;;;;;;1999.90;999.90;;;;;;;34.51;100.00;95602.66;5008284;28;20199;-59
2023/08/13 07:25:17;;;;;;;1999.90;999.90;;;;;;;33.93;100.00;95613.66;5008032;28;20206;-58
2023/08/13 07:27:43;;;;;;;1999.90;999.90;;;;;;;34.04;100.00;95607.72;5007418;28;20192;-58
2023/08/13 07:30:10;;;;;;;1999.90;999.90;;;;;;;35.44;100.00;95609.88;5007391;28;20207;-59
2023/08/13 07:32:36;;;;;;;1999.90;999.90;;;;;;;36.11;98.40;95614.97;5007367;28;20266;-58
2023/08/13 07:35:02;;;;;;;1999.90;999.90;;;;;;;36.77;91.69;95609.88;5007522;28;20211;-59
2023/08/13 07:37:28;;;;;;;1999.90;999.90;;;;;;;35.33;98.45;95610.19;5007374;28;20211;-59
2023/08/13 07:39:54;;;;;;;1999.90;999.90;;;;;;;35.09;100.00;95607.78;5007680;28;20191;-59
2023/08/13 07:42:20;;;;;;;1999.90;999.90;;;;;;;33.03;100.00;95615.41;5007291;28;20195;-59
2023/08/13 07:44:45;;;;;;;1999.90;999.90;;;;;;;34.57;100.00;95605.34;5007542;28;20191;-59
2023/08/13 07:47:11;;;;;;;1999.90;999.90;;;;;;;35.85;92.88;95609.63;5007236;28;20219;-59
2023/08/13 07:49:36;;;;;;;1999.90;999.90;;;;;;;35.59;93.57;95605.00;5007381;28;20203;-59
2023/08/13 07:52:01;;;;;;;1999.90;999.90;;;;;;;34.25;100.00;95619.81;5007185;28;20258;-60
2023/08/13 07:54:28;;;;;;;1999.90;999.90;;;;;;;34.83;100.00;95617.28;5007393;28;20208;-59
2023/08/13 07:56:53;;;;;;;1999.90;999.90;;;;;;;35.69;95.51;95608.78;5007014;28;20196;-59
2023/08/13 07:59:19;;;;;;;1999.90;999.90;;;;;;;35.91;95.19;95598.84;5007059;28;20253;-58
2023/08/13 08:01:45;;;;;;;1999.90;999.90;;;;;;;34.66;100.00;95611.28;5006896;28;20195;-59
2023/08/13 08:04:10;;;;;;;1999.90;999.90;;;;;;;36.11;93.05;95603.59;5006602;28;20238;-60
2023/08/13 08:06:35;;;;;;;1999.90;999.90;;;;;;;35.50;95.41;95599.84;5007035;28;20188;-59
2023/08/13 08:09:01;;;;;;;1999.90;999.90;;;;;;;35.22;99.62;95593.44;5007086;28;20198;-59
2023/08/13 08:11:26;;;;;;;1999.90;999.90;;;;;;;33.80;100.00;95594.59;5006840;28;20271;-59
2023/08/13 08:13:52;;;;;;;1999.90;999.90;;;;;;;34.59;100.00;95594.22;5006946;28;20225;-59
2023/08/13 08:16:17;;;;;;;1999.90;999.90;;;;;;;35.13;100.00;95591.13;5006697;28;20195;-59
2023/08/13 08:18:43;;;;;;;1999.90;999.90;;;;;;;34.36;100.00;95593.25;5006794;28;20186;-59
2023/08/13 08:21:08;;;;;;;1999.90;999.90;;;;;;;34.74;100.00;95595.03;5007086;28;20195;-59
2023/08/13 08:23:33;;;;;;;1999.90;999.90;;;;;;;34.26;100.00;95600.75;5007073;28;20202;-59
2023/08/13 08:25:59;;;;;;;1999.90;999.90;;;;;;;35.56;100.00;95602.50;5006950;28;20223;-58
2023/08/13 08:28:25;;;;;;;1999.90;999.90;;;;;;;36.56;87.58;95598.69;5006545;28;20198;-59
2023/08/13 08:30:51;;;;;;;1999.90;999.90;;;;;;;37.22;86.69;95598.44;5006732;28;20239;-59
2023/08/13 08:33:16;;;;;;;1999.90;999.90;;;;;;;37.39;87.16;95595.69;5006228;28;20191;-59
2023/08/13 08:35:41;;;;;;;1999.90;999.90;;;;;;;36.21;96.49;95591.09;5006488;28;20215;-58
2023/08/13 08:38:07;;;;;;;1999.90;999.90;;;;;;;37.85;83.76;95594.16;5006481;28;20188;-59
2023/08/13 08:40:32;;;;;;;1999.90;999.90;;;;;;;35.92;90.63;95591.81;5006623;28;20192;-59
2023/08/13 08:42:58;;;;;;;1999.90;999.90;;;;;;;36.03;94.37;95588.59;5006241;28;20196;-59
2023/08/13 08:45:24;;;;;;;1999.90;999.90;;;;;;;37.56;86.45;95590.09;5006342;28;20206;-59
2023/08/13 08:47:51;;;;;;;1999.90;999.90;;;;;;;35.77;95.36;95591.78;5006646;28;20195;-59
2023/08/13 08:50:17;;;;;;;1999.90;999.90;;;;;;;35.60;100.00;95583.00;5006688;28;20246;-59
2023/08/13 08:52:42;;;;;;;1999.90;999.90;;;;;;;36.45;89.81;95593.38;5006435;28;20192;-60
2023/08/13 08:55:11;;;;;;;1999.90;999.90;;;;;;;36.92;88.66;95577.78;5006113;28;20211;-59
2023/08/13 08:57:38;;;;;;;1999.90;999.90;;;;;;;36.30;89.81;95582.00;5005911;28;20274;-59
2023/08/13 09:00:04;;;;;;;1999.90;999.90;;;;;;;36.41;88.07;95580.84;5005763;28;20192;-59
2023/08/13 09:02:30;;;;;;;1999.90;999.90;;;;;;;34.11;100.00;95584.34;5005938;28;20195;-59
2023/08/13 09:04:56;;;;;;;1999.90;999.90;;;;;;;32.69;100.00;95572.81;5005899;28;20223;-59
2023/08/13 09:07:28;;;;;;;1999.90;999.90;;;;;;;32.86;100.00;95578.19;5006273;28;20202;-59
2023/08/13 09:09:54;;;;;;;1999.90;999.90;;;;;;;33.22;100.00;95573.53;5005899;28;20199;-59
2023/08/13 09:12:19;;;;;;;1999.90;999.90;;;;;;;34.15;100.00;95584.00;5005704;28;20192;-58
2023/08/13 09:14:45;;;;;;;1999.90;999.90;;;;;;;34.02;100.00;95576.31;5005068;28;20218;-59
2023/08/13 09:17:11;;;;;;;1999.90;999.90;;;;;;;33.75;100.00;95578.50;5005719;28;20188;-59
2023/08/13 09:19:37;;;;;;;1999.90;999.90;;;;;;;33.86;100.00;95585.25;5006094;28;20204;-59
2023/08/13 09:22:03;;;;;;;1999.90;999.90;;;;;;;34.57;100.00;95574.88;5005618;28;20195;-59
2023/08/13 09:24:48;;;;;;;1999.90;999.90;;;;;;;35.24;100.00;95573.75;5005352;28;20196;-59
2023/08/13 09:27:14;;;;;;;1999.90;999.90;;;;;;;36.94;90.40;95575.88;5005536;28;20203;-59
2023/08/13 09:29:39;;;;;;;1999.90;999.90;;;;;;;35.81;98.60;95563.72;5005561;28;20263;-59
2023/08/13 09:32:05;;;;;;;1999.90;999.90;;;;;;;34.51;100.00;95565.00;5005813;28;20192;-59
2023/08/13 09:34:32;;;;;;;1999.90;999.90;;;;;;;35.82;100.00;95553.88;5005695;28;20214;-59
2023/08/13 09:36:58;;;;;;;1999.90;999.90;;;;;;;35.80;97.53;95550.84;5005255;28;20215;-59
2023/08/13 09:39:25;;;;;;;1999.90;999.90;;;;;;;36.23;98.62;95559.22;5005206;28;20192;-59
2023/08/13 09:41:52;;;;;;;1999.90;999.90;;;;;;;34.69;100.00;95549.78;5005022;28;20195;-59
2023/08/13 09:44:24;;;;;;;1999.90;999.90;;;;;;;35.28;100.00;95548.59;5005124;28;20195;-58
2023/08/13 09:47:00;;;;;;;1999.90;999.90;;;;;;;34.15;100.00;95555.63;5005695;28;20290;-59
2023/08/13 09:49:30;;;;;;;1999.90;999.90;;;;;;;33.50;100.00;95551.03;5005322;28;20202;-59
2023/08/13 09:51:58;;;;;;;1999.90;999.90;;;;;;;34.46;100.00;95546.03;5005145;28;20263;-58
2023/08/13 09:54:31;;;;;;;1999.90;999.90;;;;;;;34.08;100.00;95550.66;5004905;28;20287;-59
2023/08/13 09:57:07;;;;;;;1999.90;999.90;;;;;;;33.31;100.00;95534.19;5004878;28;20195;-59
2023/08/13 09:59:34;;;;;;;1999.90;999.90;;;;;;;34.30;100.00;95539.47;5005121;28;20214;-59
2023/08/13 10:02:00;;;;;;;1999.90;999.90;;;;;;;34.74;100.00;95537.50;5004846;28;20199;-59
2023/08/13 10:04:26;;;;;;;1999.90;999.90;;;;;;;35.48;100.00;95530.66;5005187;28;20199;-59
2023/08/13 10:06:54;;;;;;;1999.90;999.90;;;;;;;36.18;98.37;95528.84;5004771;28;20199;-58
2023/08/13 10:09:20;;;;;;;1999.90;999.90;;;;;;;35.84;100.00;95534.16;5004708;28;20215;-59
2023/08/13 10:11:45;;;;;;;1999.90;999.90;;;;;;;34.86;100.00;95533.06;5005235;28;20207;-59
2023/08/13 10:14:11;;;;;;;1999.90;999.90;;;;;;;35.01;100.00;95530.28;5004575;28;20214;-59
2023/08/13 10:16:38;;;;;;;1999.90;999.90;;;;;;;35.64;100.00;95524.44;5004893;28;20226;-59
2023/08/13 10:19:06;;;;;;;1999.90;999.90;;;;;;;36.64;100.00;95524.66;5004547;28;20211;-60
2023/08/13 10:21:38;;;;;;;1999.90;999.90;;;;;;;35.86;99.67;95531.50;5004426;28;20199;-59
2023/08/13 10:24:13;;;;;;;1999.90;999.90;;;;;;;34.61;100.00;95534.78;5004649;28;20191;-60
2023/08/13 10:26:42;;;;;;;1999.90;999.90;;;;;;;35.91;100.00;95536.25;5005067;28;20234;-59
2023/08/13 10:29:19;;;;;;;1999.90;999.90;;;;;;;36.40;100.00;95530.94;5004252;28;20211;-59
2023/08/13 10:31:58;;;;;;;1999.90;999.90;;;;;;;36.01;100.00;95537.22;5004841;28;20202;-59
2023/08/13 10:34:53;;;;;;;1999.90;999.90;;;;;;;34.18;100.00;95520.47;5004145;28;20215;-59
2023/08/13 10:37:23;;;;;;;1999.90;999.90;;;;;;;35.23;100.00;95518.22;5004417;28;20199;-59
2023/08/13 10:39:55;;;;;;;1999.90;999.90;;;;;;;35.60;100.00;95514.75;5004694;28;20188;-59
2023/08/13 10:42:26;;;;;;;1999.90;999.90;;;;;;;36.17;100.00;95521.66;5004698;28;20223;-58
2023/08/13 10:45:02;;;;;;;1999.90;999.90;;;;;;;35.31;100.00;95521.88;5004349;28;20234;-59